17°C Temp
9°C Dewpoint
59% Humidity
Temperature
5 KM/H
3 MPH
3 KTS
240°
West South
West

Wind Speed
Mostly Cloudy
Conditions
Pressure 1015.92 (hPa) - 30 (in)
Visibility 6.0 (mi) - 9.7 (km)

Current Conditions
LIBQ
Location 5(km)
Metar :LIBQ 150655Z 24003KT 9999 BKN005 17/09 Q1016
Wed 15th May 08:55 am

Airport
  Metar Aviation API Data Provided by https://www.checkwx.com/ PHP scripts by weather34.com ©2024